Linkoping City Airport


Codes: ESSL/LPI
Name: Linkoping City Airport
City: Linkoping
Country: Sweden
Elevation: 172 ft.
Website:
Wikipedia:

Photos at Linkoping City Airport


   Photos courtesy of SpottingLog. You can add your own sightings and photos by signing up for a free trial today.



No photos found.

Weather at Linkoping City Airport


Time (UTC)DescriptionTempratureWindCloud coverageVisibilityPressureHumidity
23-May-2024 21:00Clear Sky17°C7 mph, E9%10000m1018hPa76%
24-May-2024 00:00Scattered Clouds15°C7 mph, E41%10000m1018hPa82%
24-May-2024 03:00Light Rain14°C4 mph, E100%653m1019hPa99%
24-May-2024 06:00Overcast Clouds14°C4 mph, E100%363m1019hPa97%
24-May-2024 09:00Overcast Clouds16°C4 mph, SE100%10000m1020hPa89%
24-May-2024 12:00Overcast Clouds19°C4 mph, SE100%10000m1020hPa71%
24-May-2024 15:00Overcast Clouds19°C2 mph, W100%10000m1019hPa70%
24-May-2024 18:00Light Rain18°C2 mph, NE100%10000m1020hPa81%
24-May-2024 21:00Overcast Clouds15°C4 mph, SE100%10000m1021hPa89%
25-May-2024 00:00Overcast Clouds14°C2 mph, SE100%10000m1021hPa89%
25-May-2024 03:00Overcast Clouds14°C4 mph, SE100%10000m1021hPa91%
25-May-2024 06:00Overcast Clouds17°C4 mph, E87%10000m1022hPa73%
25-May-2024 09:00Scattered Clouds22°C7 mph, E43%10000m1022hPa51%
25-May-2024 12:00Scattered Clouds25°C9 mph, SE32%10000m1021hPa44%
25-May-2024 15:00Few Clouds24°C11 mph, SE17%10000m1021hPa49%
25-May-2024 18:00Few Clouds20°C9 mph, SE14%10000m1022hPa67%
25-May-2024 21:00Few Clouds13°C7 mph, SE12%10000m1023hPa92%
26-May-2024 00:00Few Clouds12°C4 mph, SE11%10000m1024hPa97%
26-May-2024 03:00Few Clouds12°C4 mph, E20%10000m1024hPa97%
26-May-2024 06:00Scattered Clouds17°C9 mph, E29%10000m1024hPa75%
26-May-2024 09:00Scattered Clouds22°C9 mph, SE38%10000m1024hPa57%
26-May-2024 12:00Few Clouds24°C11 mph, SE24%10000m1023hPa41%
26-May-2024 15:00Overcast Clouds22°C13 mph, SE88%10000m1022hPa51%
26-May-2024 18:00Broken Clouds18°C11 mph, SE57%10000m1022hPa74%
26-May-2024 21:00Clear Sky13°C7 mph, SE0%10000m1022hPa93%
27-May-2024 00:00Scattered Clouds12°C4 mph, SE28%10000m1022hPa98%
27-May-2024 03:00Broken Clouds11°C4 mph, SE77%10000m1021hPa98%
27-May-2024 06:00Broken Clouds18°C9 mph, SE66%10000m1021hPa72%
27-May-2024 09:00Broken Clouds24°C11 mph, SE55%10000m1020hPa50%
27-May-2024 12:00Broken Clouds26°C13 mph, SE55%10000m1018hPa39%
27-May-2024 15:00Broken Clouds24°C13 mph, SE80%10000m1017hPa47%
27-May-2024 18:00Light Rain20°C11 mph, SE46%10000m1018hPa64%
27-May-2024 21:00Light Rain14°C7 mph, SE28%10000m1018hPa87%
28-May-2024 00:00Scattered Clouds13°C4 mph, SE41%10000m1018hPa92%
28-May-2024 03:00Overcast Clouds12°C4 mph, SE96%10000m1017hPa92%
28-May-2024 06:00Light Rain17°C4 mph, SE97%10000m1017hPa88%
28-May-2024 09:00Broken Clouds24°C11 mph, SE63%10000m1016hPa47%
28-May-2024 12:00Broken Clouds25°C11 mph, SE72%10000m1015hPa38%
28-May-2024 15:00Scattered Clouds25°C13 mph, SE32%10000m1014hPa33%
28-May-2024 18:00Few Clouds20°C11 mph, SE21%10000m1014hPa56%